Time;durP1;ratioP1;P1;durP2;ratioP2;P2;SDS_P1;SDS_P2;PMS_P1;PMS_P2;Temp;Humidity;BMP_temperature;BMP_pressure;BME280_temperature;BME280_humidity;BME280_pressure;Samples;Min_cycle;Max_cycle;Signal;HPM_P1;HPM_P2
2021/09/11 07:17:43;;;;;;;11.00;6.70;;;21.90;82.50;;;;;;5059674;28;20406;-69
2021/09/11 07:20:09;;;;;;;10.63;7.40;;;21.70;83.00;;;;;;5046103;28;20492;-67
2021/09/11 07:22:35;;;;;;;12.98;7.38;;;21.70;82.50;;;;;;5052027;28;20056;-70
2021/09/11 07:25:00;;;;;;;14.38;7.90;;;21.70;83.20;;;;;;5056488;28;20094;-69
2021/09/11 07:27:26;;;;;;;15.77;8.38;;;21.80;82.90;;;;;;5052161;28;20087;-70
2021/09/11 07:29:51;;;;;;;13.90;7.85;;;21.70;82.70;;;;;;5047256;28;20064;-68
2021/09/11 07:32:17;;;;;;;13.15;8.57;;;21.60;82.60;;;;;;5048753;28;20045;-69
2021/09/11 07:34:42;;;;;;;14.40;8.13;;;21.50;82.70;;;;;;5048607;28;20017;-69
2021/09/11 07:37:08;;;;;;;15.27;8.52;;;21.50;83.40;;;;;;5047149;28;20048;-68
2021/09/11 07:39:33;;;;;;;12.50;7.82;;;21.50;83.50;;;;;;5048050;28;20021;-71
2021/09/11 07:41:59;;;;;;;13.70;8.68;;;21.50;83.80;;;;;;5047345;28;20028;-70
2021/09/11 07:44:24;;;;;;;14.60;8.80;;;21.50;83.40;;;;;;5047350;28;20024;-69
2021/09/11 07:46:50;;;;;;;16.42;8.65;;;21.60;83.80;;;;;;5048462;28;20512;-68
2021/09/11 07:49:16;;;;;;;14.20;8.75;;;21.50;83.60;;;;;;5048068;28;20064;-69
2021/09/11 07:51:41;;;;;;;14.35;9.10;;;21.50;83.70;;;;;;5048384;28;20495;-69
2021/09/11 07:54:07;;;;;;;12.23;8.77;;;21.50;84.20;;;;;;5047136;28;20087;-69
2021/09/11 07:56:32;;;;;;;13.98;9.77;;;21.60;84.10;;;;;;5046943;28;20466;-66
2021/09/11 07:58:58;;;;;;;14.27;9.27;;;21.60;83.70;;;;;;5047926;28;20082;-68
2021/09/11 08:01:23;;;;;;;13.63;8.60;;;21.40;83.70;;;;;;5048188;28;20393;-67
2021/09/11 08:03:49;;;;;;;14.27;8.77;;;21.40;83.80;;;;;;5048029;28;20035;-68
2021/09/11 08:06:16;;;;;;;13.05;8.25;;;21.40;83.90;;;;;;5052694;28;20033;-67
2021/09/11 08:08:42;;;;;;;14.65;8.65;;;21.40;83.80;;;;;;5063099;28;20481;-68
2021/09/11 08:11:08;;;;;;;13.40;9.35;;;21.60;83.20;;;;;;5049093;28;20055;-66
2021/09/11 08:13:34;;;;;;;13.70;9.27;;;21.60;82.50;;;;;;5056058;28;20116;-68
2021/09/11 08:15:59;;;;;;;13.75;9.43;;;21.60;81.80;;;;;;5062457;28;20025;-67
2021/09/11 08:18:25;;;;;;;13.00;9.25;;;21.40;82.20;;;;;;5053549;28;20459;-68
2021/09/11 08:20:52;;;;;;;12.05;7.90;;;21.50;82.90;;;;;;5057228;28;20025;-68
2021/09/11 08:23:18;;;;;;;12.30;8.30;;;21.60;81.90;;;;;;5048067;28;20018;-66
2021/09/11 08:25:45;;;;;;;13.15;8.40;;;21.80;81.90;;;;;;5046620;28;20112;-66
2021/09/11 08:28:12;;;;;;;13.35;8.45;;;22.00;81.50;;;;;;5018543;28;20485;-66
2021/09/11 08:30:38;;;;;;;14.07;8.85;;;22.10;80.00;;;;;;5033440;28;20086;-69
2021/09/11 08:33:03;;;;;;;12.70;9.07;;;22.00;79.90;;;;;;5040032;28;20116;-68
2021/09/11 08:35:29;;;;;;;13.80;9.23;;;22.00;80.40;;;;;;5034019;28;20034;-69
2021/09/11 08:37:54;;;;;;;12.38;8.50;;;22.10;80.80;;;;;;5044946;28;20017;-67
2021/09/11 08:40:21;;;;;;;14.25;9.75;;;22.20;80.10;;;;;;5034133;28;20029;-67
2021/09/11 08:42:47;;;;;;;14.82;9.60;;;22.10;80.60;;;;;;5036909;28;20018;-68
2021/09/11 08:45:14;;;;;;;14.40;10.73;;;21.90;80.20;;;;;;5029645;28;20024;-68
2021/09/11 08:47:48;;;;;;;13.27;10.18;;;21.80;80.80;;;;;;5033608;28;20477;-68
2021/09/11 08:50:15;;;;;;;15.20;10.90;;;21.70;81.00;;;;;;5036655;28;20029;-65
2021/09/11 08:52:47;;;;;;;16.25;11.95;;;21.60;81.00;;;;;;5033875;28;20026;-66
2021/09/11 08:55:14;;;;;;;15.05;11.75;;;21.60;82.10;;;;;;5041573;28;20389;-67
2021/09/11 08:57:54;;;;;;;16.02;12.55;;;21.80;82.00;;;;;;5046815;28;20032;-68
2021/09/11 09:00:20;;;;;;;15.57;11.40;;;21.90;80.10;;;;;;5032662;28;20079;-67
2021/09/11 09:02:46;;;;;;;14.25;11.75;;;22.00;82.50;;;;;;5028892;28;20037;-73
2021/09/11 09:05:12;;;;;;;17.33;10.77;;;22.00;81.30;;;;;;5028183;28;20036;-67
2021/09/11 09:07:43;;;;;;;18.58;10.98;;;22.10;82.50;;;;;;5027128;28;20025;-66
2021/09/11 09:10:12;;;;;;;13.50;11.45;;;22.10;80.60;;;;;;5033709;28;20053;-67
2021/09/11 09:12:40;;;;;;;18.13;11.68;;;22.00;83.10;;;;;;5027172;28;20048;-65
2021/09/11 09:15:11;;;;;;;15.00;11.23;;;21.90;83.30;;;;;;5026385;28;20032;-67
2021/09/11 09:17:43;;;;;;;14.50;10.63;;;22.00;81.30;;;;;;5032488;28;20057;-66
2021/09/11 09:20:09;;;;;;;;;;;21.90;82.80;;;;;;5024157;28;20062;-65
2021/09/11 09:22:35;;;;;;;15.00;10.48;;;22.00;83.40;;;;;;5030772;28;19927;-67
2021/09/11 09:25:00;;;;;;;14.95;10.60;;;22.10;82.70;;;;;;5032085;28;20492;-64
2021/09/11 09:27:26;;;;;;;14.48;12.05;;;22.20;82.00;;;;;;5038118;28;20469;-66
2021/09/11 09:30:00;;;;;;;14.00;11.55;;;22.20;81.00;;;;;;5034001;28;20894;-65
2021/09/11 09:32:36;;;;;;;13.73;11.05;;;22.20;81.00;;;;;;5030619;28;20025;-67
2021/09/11 09:35:16;;;;;;;12.85;10.43;;;22.30;80.20;;;;;;5026083;28;20803;-65
2021/09/11 09:37:54;;;;;;;11.00;9.27;;;22.30;80.10;;;;;;5023557;28;20035;-65
2021/09/11 09:40:50;;;;;;;11.30;9.18;;;22.20;79.70;;;;;;5023757;28;20544;-68
2021/09/11 09:43:31;;;;;;;10.98;8.38;;;22.30;79.60;;;;;;5030965;28;20709;-64
2021/09/11 09:46:10;;;;;;;9.80;8.00;;;22.30;79.50;;;;;;5024116;28;20366;-66
2021/09/11 09:48:38;;;;;;;11.93;6.90;;;22.20;79.30;;;;;;5022841;28;20033;-67
2021/09/11 09:51:09;;;;;;;10.90;6.63;;;22.10;79.60;;;;;;5024441;28;20040;-69
2021/09/11 09:53:36;;;;;;;;;;;22.10;79.30;;;;;;5025292;28;20493;-67
2021/09/11 09:56:02;;;;;;;8.80;6.28;;;22.20;79.20;;;;;;5023430;28;20111;-67
2021/09/11 09:58:30;;;;;;;9.48;6.18;;;22.20;79.70;;;;;;5027246;28;20112;-66
2021/09/11 10:03:24;;;;;;;7.43;5.00;;;22.30;78.30;;;;;;5025257;23;20060;-66
2021/09/11 10:05:53;;;;;;;7.28;5.07;;;22.20;78.40;;;;;;5017648;28;20033;-69
2021/09/11 10:08:20;;;;;;;7.63;5.05;;;22.00;78.60;;;;;;5017363;28;20032;-65
2021/09/11 10:10:47;;;;;;;7.35;4.78;;;22.00;79.00;;;;;;5008180;28;20042;-67
2021/09/11 10:13:16;;;;;;;8.27;4.57;;;22.10;78.60;;;;;;5019939;22;20038;-65
2021/09/11 10:16:00;;;;;;;10.48;4.57;;;22.00;78.60;;;;;;5028358;22;20042;-67
2021/09/11 10:18:37;;;;;;;9.05;4.82;;;22.10;78.70;;;;;;5003263;28;20025;-68
2021/09/11 10:21:24;;;;;;;10.20;4.70;;;22.10;78.70;;;;;;4991065;28;20786;-66
2021/09/11 10:23:55;;;;;;;7.38;4.57;;;22.10;78.70;;;;;;4988746;28;20033;-68
2021/09/11 10:26:48;;;;;;;8.60;4.80;;;22.10;78.50;;;;;;5007073;28;20030;-67
2021/09/11 10:29:31;;;;;;;6.60;4.50;;;22.10;78.50;;;;;;4984805;28;20037;-70
2021/09/11 10:32:01;;;;;;;8.43;4.45;;;22.10;78.90;;;;;;4981327;28;20038;-67
2021/09/11 10:34:50;;;;;;;7.07;4.68;;;22.10;78.70;;;;;;4987049;28;20022;-68
2021/09/11 10:37:47;;;;;;;11.65;4.70;;;22.00;78.70;;;;;;4993782;28;20022;-68
2021/09/11 10:40:29;;;;;;;12.60;4.50;;;22.10;78.80;;;;;;5005743;28;20026;-69
2021/09/11 10:43:04;;;;;;;8.38;4.38;;;22.10;79.00;;;;;;5006104;28;20024;-69
2021/09/11 10:45:59;;;;;;;9.23;4.68;;;22.20;79.10;;;;;;5019691;28;20029;-69
2021/09/11 10:48:44;;;;;;;8.48;4.03;;;22.20;78.70;;;;;;5003796;28;20029;-70
2021/09/11 10:51:24;;;;;;;6.97;4.10;;;22.40;78.50;;;;;;5003839;28;20104;-69
2021/09/11 10:54:08;;;;;;;8.48;3.90;;;22.50;78.20;;;;;;5020095;28;20021;-69
2021/09/11 10:56:43;;;;;;;7.85;4.10;;;22.70;77.30;;;;;;5019525;28;20030;-69
2021/09/11 10:59:14;;;;;;;6.88;3.80;;;22.80;76.90;;;;;;5004139;28;20049;-69
2021/09/11 11:01:56;;;;;;;;;;;23.00;76.60;;;;;;5005861;28;20030;-70
2021/09/11 11:04:37;;;;;;;7.97;3.58;;;23.00;76.20;;;;;;5006448;28;19936;-70
2021/09/11 11:07:04;;;;;;;9.27;4.30;;;22.90;76.50;;;;;;5021461;28;20036;-69
2021/09/11 11:10:10;;;;;;;9.00;4.43;;;22.80;76.20;;;;;;5023667;28;20076;-69
2021/09/11 11:12:40;;;;;;;9.38;4.40;;;22.80;77.30;;;;;;4989048;28;20500;-70
2021/09/11 11:15:21;;;;;;;14.40;4.70;;;23.00;76.50;;;;;;5027082;28;20064;-69
2021/09/11 11:17:48;;;;;;;9.82;4.60;;;23.20;76.10;;;;;;5026340;28;20399;-70
2021/09/11 11:20:20;;;;;;;7.68;4.07;;;23.30;75.80;;;;;;5009917;28;20018;-70
2021/09/11 11:22:46;;;;;;;9.80;4.50;;;23.40;75.30;;;;;;5012024;28;20022;-70
2021/09/11 11:25:15;;;;;;;7.72;4.20;;;23.30;75.50;;;;;;5011989;28;20372;-69
2021/09/11 11:27:41;;;;;;;9.27;4.18;;;23.20;75.60;;;;;;5011932;28;20052;-70
2021/09/11 11:30:08;;;;;;;9.52;4.63;;;23.10;75.60;;;;;;5011580;28;20379;-69
2021/09/11 11:32:35;;;;;;;8.82;4.80;;;23.00;75.80;;;;;;5027039;28;20033;-69
2021/09/11 11:35:03;;;;;;;8.30;5.22;;;22.90;75.90;;;;;;5027145;28;20113;-69
2021/09/11 11:37:36;;;;;;;6.88;4.78;;;22.80;75.90;;;;;;5026780;28;20026;-69
2021/09/11 11:40:08;;;;;;;8.30;4.00;;;22.80;76.10;;;;;;5011554;28;20022;-69
2021/09/11 11:42:34;;;;;;;7.55;4.90;;;22.70;77.10;;;;;;5011728;28;20088;-70
2021/09/11 11:45:01;;;;;;;7.85;4.97;;;22.70;77.30;;;;;;5011804;28;20025;-69
2021/09/11 11:48:02;;;;;;;7.43;4.63;;;22.60;77.20;;;;;;5011666;28;20053;-69
2021/09/11 11:50:31;;;;;;;7.20;5.00;;;22.60;77.40;;;;;;5010644;28;20061;-69
2021/09/11 11:53:08;;;;;;;9.20;4.57;;;22.60;77.30;;;;;;4991255;28;20065;-69
2021/09/11 11:55:36;;;;;;;6.88;4.60;;;22.60;77.70;;;;;;4991565;28;20487;-69
2021/09/11 11:58:23;;;;;;;7.78;4.85;;;22.50;78.00;;;;;;5006631;28;20089;-69
2021/09/11 12:00:51;;;;;;;7.30;5.18;;;22.50;77.70;;;;;;4990852;28;20022;-70
2021/09/11 12:03:45;;;;;;;7.30;5.20;;;22.50;77.80;;;;;;5007331;28;20022;-70
2021/09/11 12:06:20;;;;;;;8.02;5.05;;;22.50;78.10;;;;;;4994381;28;20484;-69
2021/09/11 12:08:47;;;;;;;7.50;5.10;;;22.50;78.10;;;;;;4994631;28;20034;-70
2021/09/11 12:11:23;;;;;;;6.95;4.88;;;22.50;78.00;;;;;;5007864;28;20098;-69
2021/09/11 12:13:55;;;;;;;7.70;5.53;;;22.60;77.80;;;;;;4994862;28;20035;-72
2021/09/11 12:16:22;;;;;;;8.10;5.47;;;22.60;77.80;;;;;;4994719;28;20031;-69
2021/09/11 12:18:47;;;;;;;8.75;5.03;;;22.60;77.80;;;;;;4995027;28;20036;-72
2021/09/11 12:21:15;;;;;;;7.95;4.90;;;22.60;77.60;;;;;;5020717;28;20018;-69
2021/09/11 12:23:50;;;;;;;7.45;4.70;;;22.70;77.90;;;;;;4995076;28;20057;-70
2021/09/11 12:26:17;;;;;;;8.43;5.47;;;22.70;77.60;;;;;;4995119;28;20113;-70
2021/09/11 12:28:51;;;;;;;7.50;4.80;;;22.70;77.50;;;;;;4994922;28;20038;-70
2021/09/11 12:31:20;;;;;;;6.55;5.10;;;22.60;77.70;;;;;;4995049;28;20046;-70
2021/09/11 12:34:04;;;;;;;7.63;5.07;;;22.60;77.80;;;;;;4994221;28;20033;-69
2021/09/11 12:36:29;;;;;;;6.90;4.68;;;22.60;77.90;;;;;;4996668;28;20379;-70
2021/09/11 12:38:58;;;;;;;7.40;5.07;;;22.50;77.80;;;;;;4993979;28;20097;-70
2021/09/11 12:41:24;;;;;;;6.88;5.13;;;22.50;78.00;;;;;;4994772;28;20073;-71
2021/09/11 12:43:49;;;;;;;10.60;5.80;;;22.50;78.10;;;;;;4994798;28;20022;-70
2021/09/11 12:46:38;;;;;;;6.32;4.70;;;22.50;77.80;;;;;;4992721;28;20399;-70
2021/09/11 12:49:06;;;;;;;7.90;5.47;;;22.50;78.00;;;;;;4993234;28;20031;-70
2021/09/11 12:51:33;;;;;;;8.02;5.20;;;22.50;78.00;;;;;;5009824;28;20479;-70
2021/09/11 12:53:58;;;;;;;6.85;5.20;;;22.50;77.90;;;;;;4994751;28;20041;-70
2021/09/11 12:56:24;;;;;;;8.05;5.53;;;22.50;77.60;;;;;;5006307;28;20122;-70
2021/09/11 12:58:55;;;;;;;7.40;5.05;;;22.40;77.90;;;;;;4994208;28;20133;-70
2021/09/11 13:01:21;;;;;;;7.25;5.47;;;22.50;77.80;;;;;;4991233;28;20031;-70
2021/09/11 13:03:47;;;;;;;6.60;5.38;;;22.40;78.00;;;;;;5005151;28;20536;-71
2021/09/11 13:06:14;;;;;;;7.60;5.50;;;22.50;78.10;;;;;;4991624;28;20109;-70
2021/09/11 13:08:39;;;;;;;7.85;5.50;;;22.40;78.00;;;;;;5006835;28;20027;-71
2021/09/11 13:11:05;;;;;;;7.82;5.40;;;22.40;78.40;;;;;;4993099;28;20542;-71
2021/09/11 13:13:30;;;;;;;7.30;5.35;;;22.40;78.10;;;;;;5012081;28;20048;-70
2021/09/11 13:15:57;;;;;;;7.15;5.75;;;22.40;78.10;;;;;;5006185;28;20053;-70
2021/09/11 13:18:23;;;;;;;7.93;5.63;;;22.50;78.20;;;;;;4974887;28;20038;-70
2021/09/11 13:20:50;;;;;;;7.93;5.93;;;22.50;78.00;;;;;;4983003;28;20035;-71
2021/09/11 13:23:16;;;;;;;8.55;6.40;;;22.40;77.90;;;;;;4993655;28;20050;-70
2021/09/11 13:25:41;;;;;;;8.15;6.10;;;22.50;77.60;;;;;;5005841;28;20033;-70
2021/09/11 13:28:08;;;;;;;7.55;5.47;;;22.50;77.80;;;;;;4974315;28;20476;-70
2021/09/11 13:30:33;;;;;;;6.97;5.70;;;22.50;77.70;;;;;;4990226;28;20470;-70
2021/09/11 13:32:59;;;;;;;8.23;6.03;;;22.60;77.80;;;;;;5008750;28;20022;-70
2021/09/11 13:35:24;;;;;;;8.57;5.97;;;22.60;77.80;;;;;;4993982;28;20387;-70
2021/09/11 13:37:50;;;;;;;8.68;6.50;;;22.70;77.60;;;;;;5008607;28;20034;-69
2021/09/11 13:40:17;;;;;;;7.72;6.65;;;22.70;77.20;;;;;;4993774;28;20500;-70
2021/09/11 13:42:42;;;;;;;7.75;6.28;;;22.60;77.20;;;;;;4992884;28;20022;-69
2021/09/11 13:45:08;;;;;;;8.27;6.80;;;22.60;77.50;;;;;;4993558;28;20037;-69
2021/09/11 13:47:34;;;;;;;8.23;5.90;;;22.70;77.30;;;;;;4992067;28;20042;-70
2021/09/11 13:50:00;;;;;;;10.88;6.25;;;22.70;77.50;;;;;;5008154;28;20515;-70
2021/09/11 13:52:29;;;;;;;8.30;6.32;;;22.70;77.50;;;;;;4993241;28;20399;-70
2021/09/11 13:54:54;;;;;;;9.75;6.38;;;22.70;77.50;;;;;;4993337;28;20030;-69
2021/09/11 13:57:20;;;;;;;11.50;6.90;;;22.70;77.70;;;;;;5008148;28;20373;-70
2021/09/11 13:59:45;;;;;;;10.35;6.28;;;22.70;77.30;;;;;;4993079;28;20026;-68
2021/09/11 14:02:11;;;;;;;10.52;6.50;;;22.70;77.30;;;;;;4993280;28;20072;-69
2021/09/11 14:04:36;;;;;;;14.43;6.97;;;22.70;77.40;;;;;;4993397;28;20387;-69
2021/09/11 14:07:02;;;;;;;8.60;6.20;;;22.70;77.30;;;;;;4993315;28;20049;-70
2021/09/11 14:09:28;;;;;;;11.32;6.03;;;22.60;77.30;;;;;;5008086;28;20085;-70
2021/09/11 14:11:57;;;;;;;8.18;5.82;;;22.60;77.90;;;;;;4992934;28;20496;-71
2021/09/11 14:14:22;;;;;;;8.68;6.03;;;22.60;77.70;;;;;;4982370;28;20496;-69
2021/09/11 14:16:50;;;;;;;7.70;5.78;;;22.60;77.50;;;;;;4992613;28;20041;-71
2021/09/11 14:19:16;;;;;;;7.43;5.75;;;22.60;77.50;;;;;;5008072;28;20057;-70
2021/09/11 14:21:41;;;;;;;7.22;5.57;;;22.60;77.80;;;;;;4996776;28;20424;-70
2021/09/11 14:24:07;;;;;;;8.38;6.15;;;22.70;77.60;;;;;;4992807;28;20506;-70
2021/09/11 14:26:32;;;;;;;8.65;6.10;;;22.60;77.30;;;;;;5004459;28;20044;-71
2021/09/11 14:28:59;;;;;;;7.65;5.60;;;22.60;77.20;;;;;;5003804;28;20057;-70
2021/09/11 14:31:28;;;;;;;8.70;5.35;;;22.60;77.20;;;;;;4992133;28;20028;-70
2021/09/11 14:33:54;;;;;;;8.23;5.22;;;22.60;77.30;;;;;;4987734;28;20026;-71
2021/09/11 14:36:19;;;;;;;7.93;5.80;;;22.60;77.30;;;;;;5006819;28;20501;-71
2021/09/11 14:38:45;;;;;;;9.52;5.60;;;22.60;77.70;;;;;;5018845;28;20038;-71
2021/09/11 14:41:10;;;;;;;8.98;5.93;;;22.60;77.70;;;;;;4992753;28;20113;-70
2021/09/11 14:43:36;;;;;;;7.70;5.35;;;22.60;77.30;;;;;;5007713;28;20022;-70
2021/09/11 14:46:02;;;;;;;7.45;5.45;;;22.60;77.30;;;;;;4992666;28;20066;-70
2021/09/11 14:48:28;;;;;;;8.52;5.15;;;22.60;77.40;;;;;;5006767;28;20042;-70
2021/09/11 14:50:54;;;;;;;7.15;5.40;;;22.60;77.70;;;;;;5007882;28;20064;-70
2021/09/11 14:53:20;;;;;;;7.85;5.97;;;22.50;77.70;;;;;;5007582;28;20060;-70
2021/09/11 14:55:46;;;;;;;7.47;5.25;;;22.50;77.80;;;;;;4992499;28;20035;-71
2021/09/11 14:58:11;;;;;;;9.45;4.97;;;22.50;77.90;;;;;;4991171;28;20023;-70
2021/09/11 15:00:37;;;;;;;9.18;5.45;;;22.50;78.10;;;;;;5006941;28;20398;-71
2021/09/11 15:03:03;;;;;;;8.65;5.78;;;22.50;77.60;;;;;;4991388;28;20037;-70
2021/09/11 15:05:28;;;;;;;9.77;5.72;;;22.40;76.00;;;;;;5007453;28;20500;-71
2021/09/11 15:07:54;;;;;;;11.10;5.72;;;22.40;75.50;;;;;;4991517;28;20037;-70
2021/09/11 15:10:20;;;;;;;7.43;4.82;;;22.30;75.00;;;;;;4992423;28;20030;-70
2021/09/11 15:12:45;;;;;;;7.38;5.00;;;22.30;74.30;;;;;;4991902;28;20038;-71
2021/09/11 15:15:11;;;;;;;7.05;4.45;;;22.30;74.60;;;;;;4991638;28;20034;-70
2021/09/11 15:17:37;;;;;;;8.18;4.65;;;22.30;74.30;;;;;;4988886;28;20058;-69
2021/09/11 15:20:07;;;;;;;7.30;4.20;;;22.30;74.00;;;;;;5006968;28;20634;-70
2021/09/11 15:22:34;;;;;;;7.05;4.30;;;22.20;73.80;;;;;;4993169;28;20045;-71
2021/09/11 15:25:00;;;;;;;6.68;3.85;;;22.20;73.60;;;;;;4993841;28;20034;-72
2021/09/11 15:27:26;;;;;;;6.88;3.90;;;22.30;74.60;;;;;;4991205;28;20030;-71
2021/09/11 15:29:51;;;;;;;7.82;3.65;;;22.30;73.90;;;;;;4991609;28;20472;-71
2021/09/11 15:32:17;;;;;;;8.13;3.92;;;22.30;73.50;;;;;;4992182;28;20499;-71
2021/09/11 15:34:43;;;;;;;9.02;3.97;;;22.20;73.50;;;;;;4990663;28;20403;-70
2021/09/11 15:37:09;;;;;;;7.28;3.63;;;22.20;73.90;;;;;;4990515;28;20026;-71
2021/09/11 15:39:35;;;;;;;6.75;3.70;;;22.30;74.00;;;;;;4984477;28;20490;-71
2021/09/11 15:42:00;;;;;;;6.47;4.03;;;22.30;73.90;;;;;;5011207;28;20449;-73
2021/09/11 15:44:26;;;;;;;6.70;4.05;;;22.30;74.10;;;;;;4996008;28;20503;-71
2021/09/11 15:46:52;;;;;;;6.32;4.10;;;22.30;73.90;;;;;;4995652;28;20088;-70
2021/09/11 15:49:17;;;;;;;6.43;4.00;;;22.20;74.00;;;;;;4995472;28;20404;-72
2021/09/11 15:51:44;;;;;;;5.57;3.70;;;22.20;73.90;;;;;;4995893;28;20118;-71
2021/09/11 15:54:10;;;;;;;7.68;4.07;;;22.20;74.40;;;;;;4995079;28;20053;-72
2021/09/11 15:56:36;;;;;;;12.90;4.25;;;22.30;74.80;;;;;;4996354;28;20026;-70
2021/09/11 15:59:02;;;;;;;9.35;4.38;;;22.40;75.30;;;;;;4994753;28;20450;-71
2021/09/11 16:01:27;;;;;;;14.70;4.60;;;22.50;75.40;;;;;;5010988;28;20543;-72
2021/09/11 16:03:53;;;;;;;18.02;4.40;;;22.50;75.30;;;;;;5012322;28;20399;-71
2021/09/11 16:06:19;;;;;;;14.45;4.75;;;22.50;75.30;;;;;;4994818;28;20483;-71
2021/09/11 16:08:44;;;;;;;12.70;4.50;;;22.40;76.40;;;;;;4994751;28;20081;-71
2021/09/11 16:11:10;;;;;;;9.73;4.28;;;22.40;77.30;;;;;;5029234;28;20102;-72
2021/09/11 16:13:35;;;;;;;18.08;5.35;;;22.50;77.90;;;;;;5012348;28;20034;-70
2021/09/11 16:16:01;;;;;;;10.50;4.63;;;22.60;77.70;;;;;;4995425;28;20053;-71
2021/09/11 16:18:26;;;;;;;16.13;4.43;;;22.60;76.40;;;;;;5009737;28;20443;-70
2021/09/11 16:20:52;;;;;;;13.68;4.60;;;22.60;76.70;;;;;;4997200;28;20057;-68
2021/09/11 16:23:17;;;;;;;20.30;5.53;;;22.50;76.40;;;;;;4997897;28;20057;-70
2021/09/11 16:25:43;;;;;;;11.18;4.90;;;22.40;77.40;;;;;;5010270;28;20484;-71
2021/09/11 16:28:08;;;;;;;9.27;5.57;;;22.30;77.70;;;;;;4994881;28;20022;-71
2021/09/11 16:30:34;;;;;;;9.75;6.25;;;22.20;77.70;;;;;;4995419;28;20053;-70
2021/09/11 16:33:00;;;;;;;9.18;6.40;;;22.10;77.00;;;;;;4995217;28;20018;-70
2021/09/11 16:35:26;;;;;;;19.05;9.82;;;22.00;77.10;;;;;;4994601;28;20019;-69
2021/09/11 16:37:51;;;;;;;9.45;6.20;;;22.10;79.00;;;;;;4994592;28;20026;-67
2021/09/11 16:40:17;;;;;;;38.72;13.75;;;21.90;75.90;;;;;;4992947;28;20019;-68
2021/09/11 16:42:43;;;;;;;220.25;44.53;;;21.90;77.30;;;;;;4993775;28;20475;-66
2021/09/11 16:45:10;;;;;;;123.60;32.08;;;21.90;79.00;;;;;;4993617;28;20030;-66
2021/09/11 16:47:35;;;;;;;27.60;10.70;;;21.90;78.20;;;;;;4994795;28;20035;-68
2021/09/11 16:50:01;;;;;;;16.27;7.88;;;21.90;76.60;;;;;;4996479;28;20627;-69
2021/09/11 16:52:27;;;;;;;15.63;7.75;;;21.70;76.50;;;;;;4994605;28;20098;-69
2021/09/11 16:54:52;;;;;;;10.95;7.55;;;21.60;77.40;;;;;;4994576;28;20501;-68
2021/09/11 16:57:19;;;;;;;11.93;7.13;;;21.70;80.30;;;;;;5009765;28;20031;-68
2021/09/11 16:59:45;;;;;;;9.30;6.28;;;21.80;81.10;;;;;;4995858;28;20022;-67
2021/09/11 17:02:13;;;;;;;9.63;6.30;;;21.80;79.80;;;;;;5018254;28;20130;-68
2021/09/11 17:04:38;;;;;;;10.60;6.40;;;21.70;77.50;;;;;;5007924;28;20029;-68
2021/09/11 17:07:04;;;;;;;8.27;5.97;;;21.70;79.10;;;;;;5001217;28;20030;-68
2021/09/11 17:09:29;;;;;;;8.68;5.60;;;21.80;79.20;;;;;;4993655;28;20480;-68
2021/09/11 17:11:55;;;;;;;10.30;5.75;;;21.90;78.50;;;;;;4994182;28;20030;-70
2021/09/11 17:14:20;;;;;;;8.57;5.93;;;21.80;78.50;;;;;;5009206;28;20053;-68
2021/09/11 17:16:46;;;;;;;9.45;6.18;;;21.80;78.60;;;;;;5007100;28;20038;-68
2021/09/11 17:19:12;;;;;;;9.82;5.85;;;21.80;80.00;;;;;;4993194;28;20026;-69
2021/09/11 17:21:37;;;;;;;10.93;6.00;;;21.80;79.60;;;;;;5050578;22;20053;-77
2021/09/11 17:24:03;;;;;;;9.15;5.88;;;21.70;80.80;;;;;;5054027;28;20298;-77
2021/09/11 17:26:29;;;;;;;8.13;5.45;;;21.80;80.70;;;;;;5057461;28;20116;-79
2021/09/11 17:28:55;;;;;;;9.10;5.78;;;21.60;79.80;;;;;;5058316;28;20020;-77
2021/09/11 17:31:20;;;;;;;9.13;5.60;;;21.60;80.40;;;;;;5055654;28;20087;-77
2021/09/11 17:33:46;;;;;;;9.25;5.65;;;21.50;79.60;;;;;;5054262;28;20032;-77
2021/09/11 17:36:11;;;;;;;8.70;6.13;;;21.70;80.60;;;;;;5054194;28;20032;-77
2021/09/11 17:38:37;;;;;;;9.77;5.88;;;21.60;79.90;;;;;;5052944;28;20540;-78
2021/09/11 17:41:03;;;;;;;7.95;5.40;;;21.50;79.60;;;;;;5053543;28;20017;-77
2021/09/11 17:43:29;;;;;;;7.38;5.50;;;21.40;79.60;;;;;;5055706;28;20021;-76
2021/09/11 17:45:54;;;;;;;7.97;5.68;;;21.50;79.80;;;;;;5055162;28;20078;-77
2021/09/11 17:48:20;;;;;;;8.60;5.35;;;21.50;79.70;;;;;;5055006;28;20029;-76
2021/09/11 17:50:46;;;;;;;8.20;5.97;;;21.60;80.10;;;;;;5054739;28;20028;-76
2021/09/11 17:53:12;;;;;;;7.70;5.68;;;21.60;79.80;;;;;;5050115;28;20036;-78
2021/09/11 17:55:38;;;;;;;10.48;6.13;;;21.30;79.80;;;;;;5052704;28;20021;-76
2021/09/11 17:58:05;;;;;;;8.32;5.93;;;21.40;80.20;;;;;;5055678;28;20033;-78
2021/09/11 18:00:31;;;;;;;8.20;6.45;;;21.40;80.20;;;;;;5044017;28;20616;-77
2021/09/11 18:02:57;;;;;;;8.85;5.78;;;21.50;80.20;;;;;;5036672;28;20025;-77
2021/09/11 18:05:23;;;;;;;8.70;5.60;;;21.40;80.30;;;;;;5037505;28;20021;-78
2021/09/11 18:07:48;;;;;;;7.57;5.63;;;21.40;80.30;;;;;;5036881;28;20030;-77
2021/09/11 18:10:14;;;;;;;8.40;5.72;;;21.40;80.20;;;;;;5036604;28;20033;-77
2021/09/11 18:12:40;;;;;;;9.40;6.10;;;21.30;80.30;;;;;;5037041;28;20094;-77
2021/09/11 18:15:06;;;;;;;8.90;5.78;;;21.40;80.80;;;;;;5037740;28;20596;-77
2021/09/11 18:17:31;;;;;;;7.55;5.63;;;21.40;80.20;;;;;;5037066;28;20437;-77
2021/09/11 18:20:00;;;;;;;9.13;5.72;;;21.50;80.10;;;;;;5034430;28;20017;-78
2021/09/11 18:22:28;;;;;;;9.40;5.22;;;21.50;80.10;;;;;;5035208;28;20079;-77
2021/09/11 18:24:54;;;;;;;8.27;5.97;;;21.50;80.10;;;;;;5035504;28;20022;-78
2021/09/11 18:27:20;;;;;;;8.23;6.20;;;21.50;80.10;;;;;;5036741;28;20047;-77
2021/09/11 18:29:45;;;;;;;8.68;5.75;;;21.40;80.20;;;;;;5035927;28;20573;-77
2021/09/11 18:32:11;;;;;;;8.38;5.50;;;21.50;80.20;;;;;;5036527;28;20021;-78
2021/09/11 18:34:36;;;;;;;7.47;5.70;;;21.40;80.10;;;;;;5034795;28;20482;-77
2021/09/11 18:37:02;;;;;;;8.55;6.20;;;21.30;81.00;;;;;;5033638;28;20033;-77
2021/09/11 18:39:27;;;;;;;8.85;6.15;;;21.20;81.30;;;;;;5032169;28;20033;-75
2021/09/11 18:41:53;;;;;;;8.27;5.50;;;21.20;81.30;;;;;;5031614;28;20064;-76
2021/09/11 18:44:18;;;;;;;8.77;5.93;;;21.20;81.90;;;;;;5032430;28;20021;-76
2021/09/11 18:46:44;;;;;;;7.80;5.05;;;21.40;81.30;;;;;;5031679;28;20163;-76
2021/09/11 18:49:09;;;;;;;9.07;5.93;;;21.40;80.90;;;;;;5031755;28;20394;-76
2021/09/11 18:51:35;;;;;;;8.43;5.20;;;21.40;81.30;;;;;;5033109;28;20035;-75
2021/09/11 18:54:01;;;;;;;8.65;5.53;;;21.20;81.70;;;;;;5031924;28;20037;-76
2021/09/11 18:56:26;;;;;;;8.48;5.65;;;21.30;81.80;;;;;;5031595;28;20096;-78
2021/09/11 18:58:52;;;;;;;7.45;5.75;;;21.10;82.30;;;;;;5032656;28;20465;-75
2021/09/11 19:01:17;;;;;;;8.32;5.53;;;21.20;82.50;;;;;;5033573;28;20388;-75
2021/09/11 19:03:43;;;;;;;8.82;5.45;;;21.30;82.00;;;;;;5033585;28;20391;-76
2021/09/11 19:06:08;;;;;;;8.40;5.40;;;21.20;81.70;;;;;;5032853;28;20021;-76
2021/09/11 19:08:34;;;;;;;9.75;6.88;;;21.20;82.50;;;;;;5032581;28;20045;-77
2021/09/11 19:11:01;;;;;;;10.02;6.07;;;21.20;82.80;;;;;;5033284;28;20112;-78
2021/09/11 19:13:26;;;;;;;20.20;13.75;;;21.10;82.50;;;;;;5033939;28;20053;-75
2021/09/11 19:15:53;;;;;;;15.02;10.68;;;21.10;82.80;;;;;;5032478;28;20036;-76
2021/09/11 19:18:18;;;;;;;15.95;10.68;;;21.30;82.30;;;;;;5032071;28;20025;-77
2021/09/11 19:20:44;;;;;;;15.38;10.13;;;21.30;82.10;;;;;;5034926;28;20029;-77
2021/09/11 19:23:09;;;;;;;12.82;9.10;;;21.30;82.20;;;;;;5033259;28;20030;-76
2021/09/11 19:25:35;;;;;;;13.07;8.35;;;21.30;82.00;;;;;;5038127;28;20053;-77
2021/09/11 19:28:01;;;;;;;11.52;7.13;;;21.30;81.90;;;;;;5035902;28;20018;-77
2021/09/11 19:30:26;;;;;;;13.00;7.13;;;21.30;81.80;;;;;;5034920;28;20545;-76
2021/09/11 19:32:53;;;;;;;11.25;7.13;;;21.30;81.70;;;;;;5032019;28;20033;-77
2021/09/11 19:35:18;;;;;;;9.82;6.05;;;21.30;81.80;;;;;;5031754;28;20021;-79
2021/09/11 19:37:44;;;;;;;10.20;6.20;;;21.40;81.70;;;;;;5031772;28;20040;-76
2021/09/11 19:40:12;;;;;;;8.18;5.50;;;21.30;81.80;;;;;;5032773;28;20152;-77
2021/09/11 19:42:38;;;;;;;8.55;5.80;;;21.30;81.90;;;;;;5031888;28;20018;-76
2021/09/11 19:45:08;;;;;;;8.73;5.53;;;21.30;82.20;;;;;;5031413;28;20394;-77
2021/09/11 19:47:35;;;;;;;7.90;4.63;;;21.30;82.00;;;;;;5032626;28;20022;-78
2021/09/11 19:50:01;;;;;;;7.60;4.88;;;21.20;82.30;;;;;;5031548;28;20044;-77
2021/09/11 19:52:26;;;;;;;7.22;4.70;;;21.20;82.40;;;;;;5031675;28;20395;-77
2021/09/11 19:54:52;;;;;;;8.35;4.70;;;21.40;82.50;;;;;;5033070;28;20068;-75
2021/09/11 19:57:17;;;;;;;7.03;4.55;;;21.30;82.30;;;;;;5032866;28;20041;-75
2021/09/11 19:59:43;;;;;;;6.80;4.40;;;21.30;82.00;;;;;;5031712;28;20018;-75
2021/09/11 20:02:08;;;;;;;7.60;4.90;;;21.20;81.90;;;;;;5031707;28;20370;-75
2021/09/11 20:04:34;;;;;;;7.88;4.50;;;21.30;82.50;;;;;;5033048;28;20149;-77
2021/09/11 20:07:00;;;;;;;9.07;4.47;;;21.30;82.40;;;;;;5030433;28;20083;-76